sensor_id;sensor_type;location;lat;lon;timestamp;temperature;humidity
59282;DHT22;45054;52.062;10.010;2022-11-20T00:01:29;-3.70;99.90
59282;DHT22;45054;52.062;10.010;2022-11-20T00:03:57;-3.70;99.90
59282;DHT22;45054;52.062;10.010;2022-11-20T00:06:25;-3.70;99.90
59282;DHT22;45054;52.062;10.010;2022-11-20T00:08:53;-3.70;99.90
59282;DHT22;45054;52.062;10.010;2022-11-20T00:11:20;-3.70;99.90
59282;DHT22;45054;52.062;10.010;2022-11-20T00:13:48;-3.70;99.90
59282;DHT22;45054;52.062;10.010;2022-11-20T00:16:16;-3.70;99.90
59282;DHT22;45054;52.062;10.010;2022-11-20T00:18:42;-3.70;99.90
59282;DHT22;45054;52.062;10.010;2022-11-20T00:21:10;-3.70;99.90
59282;DHT22;45054;52.062;10.010;2022-11-20T00:23:37;-3.70;99.90
59282;DHT22;45054;52.062;10.010;2022-11-20T00:26:04;-3.70;99.90
59282;DHT22;45054;52.062;10.010;2022-11-20T00:28:30;-3.70;99.90
59282;DHT22;45054;52.062;10.010;2022-11-20T00:31:00;-3.70;99.90
59282;DHT22;45054;52.062;10.010;2022-11-20T00:33:26;-3.70;99.90
59282;DHT22;45054;52.062;10.010;2022-11-20T00:35:52;-3.70;99.90
59282;DHT22;45054;52.062;10.010;2022-11-20T00:38:18;-3.70;99.90
59282;DHT22;45054;52.062;10.010;2022-11-20T00:40:45;-3.70;99.90
59282;DHT22;45054;52.062;10.010;2022-11-20T00:43:11;-3.80;99.90
59282;DHT22;45054;52.062;10.010;2022-11-20T00:45:36;-3.70;99.90
59282;DHT22;45054;52.062;10.010;2022-11-20T00:48:02;-3.70;99.90
59282;DHT22;45054;52.062;10.010;2022-11-20T00:50:27;-3.70;99.90
59282;DHT22;45054;52.062;10.010;2022-11-20T00:52:53;-3.70;99.90
59282;DHT22;45054;52.062;10.010;2022-11-20T00:55:18;-3.70;99.90
59282;DHT22;45054;52.062;10.010;2022-11-20T00:57:45;-3.70;99.90
59282;DHT22;45054;52.062;10.010;2022-11-20T01:00:11;-3.80;99.90
59282;DHT22;45054;52.062;10.010;2022-11-20T01:02:37;-3.80;99.90
59282;DHT22;45054;52.062;10.010;2022-11-20T01:05:03;-3.80;99.90
59282;DHT22;45054;52.062;10.010;2022-11-20T01:07:29;-3.80;99.90
59282;DHT22;45054;52.062;10.010;2022-11-20T01:09:54;-3.90;99.90
59282;DHT22;45054;52.062;10.010;2022-11-20T01:12:20;-3.90;99.90
59282;DHT22;45054;52.062;10.010;2022-11-20T01:14:48;-3.90;99.90
59282;DHT22;45054;52.062;10.010;2022-11-20T01:17:14;-3.90;99.90
59282;DHT22;45054;52.062;10.010;2022-11-20T01:19:39;-3.90;99.90
59282;DHT22;45054;52.062;10.010;2022-11-20T01:22:05;-3.90;99.90
59282;DHT22;45054;52.062;10.010;2022-11-20T01:24:31;-3.90;99.90
59282;DHT22;45054;52.062;10.010;2022-11-20T01:26:57;-3.90;99.90
59282;DHT22;45054;52.062;10.010;2022-11-20T01:29:23;-3.90;99.90
59282;DHT22;45054;52.062;10.010;2022-11-20T01:31:51;-3.90;99.90
59282;DHT22;45054;52.062;10.010;2022-11-20T01:34:19;-3.80;99.90
59282;DHT22;45054;52.062;10.010;2022-11-20T01:36:45;-3.80;99.90
59282;DHT22;45054;52.062;10.010;2022-11-20T01:39:13;-3.80;99.90
59282;DHT22;45054;52.062;10.010;2022-11-20T01:41:39;-3.90;99.90
59282;DHT22;45054;52.062;10.010;2022-11-20T01:44:05;-3.90;99.90
59282;DHT22;45054;52.062;10.010;2022-11-20T01:46:32;-3.90;99.90
59282;DHT22;45054;52.062;10.010;2022-11-20T01:49:03;-3.90;99.90
59282;DHT22;45054;52.062;10.010;2022-11-20T01:51:33;-3.90;99.90
59282;DHT22;45054;52.062;10.010;2022-11-20T01:54:02;-3.90;99.90
59282;DHT22;45054;52.062;10.010;2022-11-20T01:56:31;-3.90;99.90
59282;DHT22;45054;52.062;10.010;2022-11-20T01:59:01;-4.00;99.90
59282;DHT22;45054;52.062;10.010;2022-11-20T02:01:28;-4.00;99.90
59282;DHT22;45054;52.062;10.010;2022-11-20T02:03:55;-4.00;99.90
59282;DHT22;45054;52.062;10.010;2022-11-20T02:06:25;-4.00;99.90
59282;DHT22;45054;52.062;10.010;2022-11-20T02:08:51;-4.00;99.90
59282;DHT22;45054;52.062;10.010;2022-11-20T02:11:17;-4.00;99.90
59282;DHT22;45054;52.062;10.010;2022-11-20T02:13:43;-4.00;99.90
59282;DHT22;45054;52.062;10.010;2022-11-20T02:16:10;-4.00;99.90
59282;DHT22;45054;52.062;10.010;2022-11-20T02:18:37;-4.00;99.90
59282;DHT22;45054;52.062;10.010;2022-11-20T02:21:07;-4.00;99.90
59282;DHT22;45054;52.062;10.010;2022-11-20T02:23:38;-4.00;99.90
59282;DHT22;45054;52.062;10.010;2022-11-20T02:26:09;-4.10;99.90
59282;DHT22;45054;52.062;10.010;2022-11-20T02:28:37;-4.10;99.90
59282;DHT22;45054;52.062;10.010;2022-11-20T02:31:03;-4.10;99.90
59282;DHT22;45054;52.062;10.010;2022-11-20T02:33:29;-4.10;99.90
59282;DHT22;45054;52.062;10.010;2022-11-20T02:35:55;-4.00;99.90
59282;DHT22;45054;52.062;10.010;2022-11-20T02:38:20;-4.00;99.90
59282;DHT22;45054;52.062;10.010;2022-11-20T02:40:46;-4.10;99.90
59282;DHT22;45054;52.062;10.010;2022-11-20T02:43:15;-4.20;99.90
59282;DHT22;45054;52.062;10.010;2022-11-20T02:45:40;-4.20;99.90
59282;DHT22;45054;52.062;10.010;2022-11-20T02:48:07;-4.20;99.90
59282;DHT22;45054;52.062;10.010;2022-11-20T02:50:32;-4.20;99.90
59282;DHT22;45054;52.062;10.010;2022-11-20T02:52:58;-4.20;99.90
59282;DHT22;45054;52.062;10.010;2022-11-20T02:55:24;-4.20;99.90
59282;DHT22;45054;52.062;10.010;2022-11-20T02:57:49;-4.20;99.90
59282;DHT22;45054;52.062;10.010;2022-11-20T03:00:17;-4.20;99.90
59282;DHT22;45054;52.062;10.010;2022-11-20T03:02:42;-4.20;99.90
59282;DHT22;45054;52.062;10.010;2022-11-20T03:05:08;-4.20;99.90
59282;DHT22;45054;52.062;10.010;2022-11-20T03:07:34;-4.20;99.90
59282;DHT22;45054;52.062;10.010;2022-11-20T03:09:59;-4.30;99.90
59282;DHT22;45054;52.062;10.010;2022-11-20T03:12:25;-4.30;99.90
59282;DHT22;45054;52.062;10.010;2022-11-20T03:14:50;-4.30;99.90
59282;DHT22;45054;52.062;10.010;2022-11-20T03:17:17;-4.30;99.90
59282;DHT22;45054;52.062;10.010;2022-11-20T03:19:43;-4.30;99.90
59282;DHT22;45054;52.062;10.010;2022-11-20T03:22:09;-4.20;99.90
59282;DHT22;45054;52.062;10.010;2022-11-20T03:24:34;-4.20;99.90
59282;DHT22;45054;52.062;10.010;2022-11-20T03:27:00;-4.20;99.90
59282;DHT22;45054;52.062;10.010;2022-11-20T03:29:26;-4.30;99.90
59282;DHT22;45054;52.062;10.010;2022-11-20T03:31:51;-4.30;99.90
59282;DHT22;45054;52.062;10.010;2022-11-20T03:34:18;-4.40;99.90
59282;DHT22;45054;52.062;10.010;2022-11-20T03:36:44;-4.30;99.90
59282;DHT22;45054;52.062;10.010;2022-11-20T03:39:10;-4.30;99.90
59282;DHT22;45054;52.062;10.010;2022-11-20T03:41:37;-4.30;99.90
59282;DHT22;45054;52.062;10.010;2022-11-20T03:44:04;-4.30;99.90
59282;DHT22;45054;52.062;10.010;2022-11-20T03:46:30;-4.30;99.90
59282;DHT22;45054;52.062;10.010;2022-11-20T03:48:56;-4.30;99.90
59282;DHT22;45054;52.062;10.010;2022-11-20T03:51:25;-4.40;99.90
59282;DHT22;45054;52.062;10.010;2022-11-20T03:53:52;-4.40;99.90
59282;DHT22;45054;52.062;10.010;2022-11-20T03:56:22;-4.30;99.90
59282;DHT22;45054;52.062;10.010;2022-11-20T03:58:47;-4.40;99.90
59282;DHT22;45054;52.062;10.010;2022-11-20T04:01:14;-4.40;99.90
59282;DHT22;45054;52.062;10.010;2022-11-20T04:03:41;-4.40;99.90
59282;DHT22;45054;52.062;10.010;2022-11-20T04:06:10;-4.40;99.90
59282;DHT22;45054;52.062;10.010;2022-11-20T04:08:37;-4.40;99.90
59282;DHT22;45054;52.062;10.010;2022-11-20T04:11:11;-4.40;99.90
59282;DHT22;45054;52.062;10.010;2022-11-20T04:13:37;-4.50;99.90
59282;DHT22;45054;52.062;10.010;2022-11-20T04:16:03;-4.50;99.90
59282;DHT22;45054;52.062;10.010;2022-11-20T04:18:29;-4.50;99.90
59282;DHT22;45054;52.062;10.010;2022-11-20T04:20:56;-4.50;99.90
59282;DHT22;45054;52.062;10.010;2022-11-20T04:23:22;-4.50;99.90
59282;DHT22;45054;52.062;10.010;2022-11-20T04:25:49;-4.40;99.90
59282;DHT22;45054;52.062;10.010;2022-11-20T04:28:14;-4.50;99.90
59282;DHT22;45054;52.062;10.010;2022-11-20T04:30:40;-4.50;99.90
59282;DHT22;45054;52.062;10.010;2022-11-20T04:33:06;-4.50;99.90
59282;DHT22;45054;52.062;10.010;2022-11-20T04:35:34;-4.50;99.90
59282;DHT22;45054;52.062;10.010;2022-11-20T04:37:59;-4.50;99.90
59282;DHT22;45054;52.062;10.010;2022-11-20T04:40:25;-4.60;99.90
59282;DHT22;45054;52.062;10.010;2022-11-20T04:42:52;-4.60;99.90
59282;DHT22;45054;52.062;10.010;2022-11-20T04:45:18;-4.60;99.90
59282;DHT22;45054;52.062;10.010;2022-11-20T04:47:43;-4.60;99.90
59282;DHT22;45054;52.062;10.010;2022-11-20T04:50:09;-4.50;99.90
59282;DHT22;45054;52.062;10.010;2022-11-20T04:52:35;-4.50;99.90
59282;DHT22;45054;52.062;10.010;2022-11-20T04:55:00;-4.50;99.90
59282;DHT22;45054;52.062;10.010;2022-11-20T04:57:26;-4.60;99.90
59282;DHT22;45054;52.062;10.010;2022-11-20T04:59:53;-4.60;99.90
59282;DHT22;45054;52.062;10.010;2022-11-20T05:02:19;-4.50;99.90
59282;DHT22;45054;52.062;10.010;2022-11-20T05:04:44;-4.50;99.90
59282;DHT22;45054;52.062;10.010;2022-11-20T05:07:10;-4.50;99.90
59282;DHT22;45054;52.062;10.010;2022-11-20T05:09:35;-4.50;99.90
59282;DHT22;45054;52.062;10.010;2022-11-20T05:12:01;-4.50;99.90
59282;DHT22;45054;52.062;10.010;2022-11-20T05:14:27;-4.50;99.90
59282;DHT22;45054;52.062;10.010;2022-11-20T05:16:54;-4.50;99.90
59282;DHT22;45054;52.062;10.010;2022-11-20T05:19:19;-4.40;99.90
59282;DHT22;45054;52.062;10.010;2022-11-20T05:21:45;-4.50;99.90
59282;DHT22;45054;52.062;10.010;2022-11-20T05:24:11;-4.50;99.90
59282;DHT22;45054;52.062;10.010;2022-11-20T05:26:37;-4.50;99.90
59282;DHT22;45054;52.062;10.010;2022-11-20T05:29:02;-4.40;99.90
59282;DHT22;45054;52.062;10.010;2022-11-20T05:31:28;-4.40;99.90
59282;DHT22;45054;52.062;10.010;2022-11-20T05:33:56;-4.50;99.90
59282;DHT22;45054;52.062;10.010;2022-11-20T05:36:22;-4.50;99.90
59282;DHT22;45054;52.062;10.010;2022-11-20T05:38:48;-4.60;99.90
59282;DHT22;45054;52.062;10.010;2022-11-20T05:41:15;-4.60;99.90
59282;DHT22;45054;52.062;10.010;2022-11-20T05:43:43;-4.70;99.90
59282;DHT22;45054;52.062;10.010;2022-11-20T05:46:11;-4.70;99.90
59282;DHT22;45054;52.062;10.010;2022-11-20T05:48:37;-4.60;99.90
59282;DHT22;45054;52.062;10.010;2022-11-20T05:51:06;-4.60;99.90
59282;DHT22;45054;52.062;10.010;2022-11-20T05:53:32;-4.60;99.90
59282;DHT22;45054;52.062;10.010;2022-11-20T05:55:59;-4.70;99.90
59282;DHT22;45054;52.062;10.010;2022-11-20T05:58:24;-4.70;99.90
59282;DHT22;45054;52.062;10.010;2022-11-20T06:00:50;-4.70;99.90
59282;DHT22;45054;52.062;10.010;2022-11-20T06:03:16;-4.80;99.90
59282;DHT22;45054;52.062;10.010;2022-11-20T06:05:41;-4.70;99.90
59282;DHT22;45054;52.062;10.010;2022-11-20T06:08:08;-4.80;99.90
59282;DHT22;45054;52.062;10.010;2022-11-20T06:10:34;-4.80;99.90
59282;DHT22;45054;52.062;10.010;2022-11-20T06:13:00;-4.80;99.90
59282;DHT22;45054;52.062;10.010;2022-11-20T06:15:25;-4.80;99.90
59282;DHT22;45054;52.062;10.010;2022-11-20T06:17:52;-4.80;99.90
59282;DHT22;45054;52.062;10.010;2022-11-20T06:20:17;-4.70;99.90
59282;DHT22;45054;52.062;10.010;2022-11-20T06:22:43;-4.60;99.90
59282;DHT22;45054;52.062;10.010;2022-11-20T06:25:10;-4.60;99.90
59282;DHT22;45054;52.062;10.010;2022-11-20T06:27:36;-4.60;99.90
59282;DHT22;45054;52.062;10.010;2022-11-20T06:30:01;-4.50;99.90
59282;DHT22;45054;52.062;10.010;2022-11-20T06:32:27;-4.50;99.90
59282;DHT22;45054;52.062;10.010;2022-11-20T06:34:52;-4.50;99.90
59282;DHT22;45054;52.062;10.010;2022-11-20T06:37:18;-4.50;99.90
59282;DHT22;45054;52.062;10.010;2022-11-20T06:39:44;-4.40;99.90
59282;DHT22;45054;52.062;10.010;2022-11-20T06:42:10;-4.40;99.90
59282;DHT22;45054;52.062;10.010;2022-11-20T06:44:36;-4.40;99.90
59282;DHT22;45054;52.062;10.010;2022-11-20T06:47:02;-4.40;99.90
59282;DHT22;45054;52.062;10.010;2022-11-20T06:49:28;-4.30;99.90
59282;DHT22;45054;52.062;10.010;2022-11-20T06:51:53;-4.30;99.90
59282;DHT22;45054;52.062;10.010;2022-11-20T06:54:19;-4.20;99.90
59282;DHT22;45054;52.062;10.010;2022-11-20T06:56:46;-4.10;99.90
59282;DHT22;45054;52.062;10.010;2022-11-20T06:59:13;-4.00;99.90
59282;DHT22;45054;52.062;10.010;2022-11-20T07:01:39;-4.10;99.90
59282;DHT22;45054;52.062;10.010;2022-11-20T07:04:05;-4.10;99.90
59282;DHT22;45054;52.062;10.010;2022-11-20T07:06:30;-4.10;99.90
59282;DHT22;45054;52.062;10.010;2022-11-20T07:08:57;-4.10;99.90
59282;DHT22;45054;52.062;10.010;2022-11-20T07:11:22;-4.00;99.90
59282;DHT22;45054;52.062;10.010;2022-11-20T07:13:48;-4.00;99.90
59282;DHT22;45054;52.062;10.010;2022-11-20T07:16:16;-3.90;99.90
59282;DHT22;45054;52.062;10.010;2022-11-20T07:18:41;-3.90;99.90
59282;DHT22;45054;52.062;10.010;2022-11-20T07:21:08;-3.80;99.90
59282;DHT22;45054;52.062;10.010;2022-11-20T07:23:35;-3.80;99.90
59282;DHT22;45054;52.062;10.010;2022-11-20T07:26:03;-3.90;99.90
59282;DHT22;45054;52.062;10.010;2022-11-20T07:28:29;-3.90;99.90
59282;DHT22;45054;52.062;10.010;2022-11-20T07:30:54;-3.90;99.90
59282;DHT22;45054;52.062;10.010;2022-11-20T07:33:21;-3.90;99.90
59282;DHT22;45054;52.062;10.010;2022-11-20T07:35:47;-3.80;99.90
59282;DHT22;45054;52.062;10.010;2022-11-20T07:38:13;-3.80;99.90
59282;DHT22;45054;52.062;10.010;2022-11-20T07:40:38;-3.80;99.90
59282;DHT22;45054;52.062;10.010;2022-11-20T07:43:04;-3.80;99.90
59282;DHT22;45054;52.062;10.010;2022-11-20T07:45:29;-3.70;99.90
59282;DHT22;45054;52.062;10.010;2022-11-20T07:47:55;-3.60;99.90
59282;DHT22;45054;52.062;10.010;2022-11-20T07:50:22;-3.70;99.90
59282;DHT22;45054;52.062;10.010;2022-11-20T07:52:48;-3.60;99.90
59282;DHT22;45054;52.062;10.010;2022-11-20T07:55:13;-3.60;99.90
59282;DHT22;45054;52.062;10.010;2022-11-20T07:57:39;-3.50;99.90
59282;DHT22;45054;52.062;10.010;2022-11-20T08:00:07;-3.30;99.90
59282;DHT22;45054;52.062;10.010;2022-11-20T08:02:33;-3.30;99.90
59282;DHT22;45054;52.062;10.010;2022-11-20T08:04:58;-3.20;99.90
59282;DHT22;45054;52.062;10.010;2022-11-20T08:07:25;-3.10;99.90
59282;DHT22;45054;52.062;10.010;2022-11-20T08:09:51;-3.00;99.90
59282;DHT22;45054;52.062;10.010;2022-11-20T08:12:18;-3.00;99.90
59282;DHT22;45054;52.062;10.010;2022-11-20T08:14:44;-2.90;99.90
59282;DHT22;45054;52.062;10.010;2022-11-20T08:17:09;-2.80;99.90
59282;DHT22;45054;52.062;10.010;2022-11-20T08:19:35;-2.70;99.90
59282;DHT22;45054;52.062;10.010;2022-11-20T08:22:00;-2.70;99.90
59282;DHT22;45054;52.062;10.010;2022-11-20T08:24:27;-2.60;99.90
59282;DHT22;45054;52.062;10.010;2022-11-20T08:26:53;-2.60;99.90
59282;DHT22;45054;52.062;10.010;2022-11-20T08:29:19;-2.50;99.90
59282;DHT22;45054;52.062;10.010;2022-11-20T08:31:44;-2.50;99.90
59282;DHT22;45054;52.062;10.010;2022-11-20T08:34:10;-2.50;99.90
59282;DHT22;45054;52.062;10.010;2022-11-20T08:36:36;-2.50;99.90
59282;DHT22;45054;52.062;10.010;2022-11-20T08:39:02;-2.50;99.90
59282;DHT22;45054;52.062;10.010;2022-11-20T08:41:30;-2.40;99.90
59282;DHT22;45054;52.062;10.010;2022-11-20T08:43:57;-2.40;99.90
59282;DHT22;45054;52.062;10.010;2022-11-20T08:46:24;-2.40;99.90
59282;DHT22;45054;52.062;10.010;2022-11-20T08:48:50;-2.40;99.90
59282;DHT22;45054;52.062;10.010;2022-11-20T08:51:16;-2.40;99.90
59282;DHT22;45054;52.062;10.010;2022-11-20T08:53:42;-2.30;99.90
59282;DHT22;45054;52.062;10.010;2022-11-20T08:56:08;-2.30;99.90
59282;DHT22;45054;52.062;10.010;2022-11-20T08:58:35;-2.30;99.90
59282;DHT22;45054;52.062;10.010;2022-11-20T09:01:02;-2.30;99.90
59282;DHT22;45054;52.062;10.010;2022-11-20T09:03:28;-2.30;99.90
59282;DHT22;45054;52.062;10.010;2022-11-20T09:05:57;-2.20;99.90
59282;DHT22;45054;52.062;10.010;2022-11-20T09:08:22;-2.30;99.90
59282;DHT22;45054;52.062;10.010;2022-11-20T09:10:51;-2.20;99.90
59282;DHT22;45054;52.062;10.010;2022-11-20T09:13:16;-2.20;99.90
59282;DHT22;45054;52.062;10.010;2022-11-20T09:15:44;-2.20;99.90
59282;DHT22;45054;52.062;10.010;2022-11-20T09:18:09;-2.10;99.90
59282;DHT22;45054;52.062;10.010;2022-11-20T09:20:35;-2.10;99.90
59282;DHT22;45054;52.062;10.010;2022-11-20T09:23:00;-2.10;99.90
59282;DHT22;45054;52.062;10.010;2022-11-20T09:25:26;-2.00;99.90
59282;DHT22;45054;52.062;10.010;2022-11-20T09:27:55;-2.10;99.90
59282;DHT22;45054;52.062;10.010;2022-11-20T09:30:20;-2.00;99.90
59282;DHT22;45054;52.062;10.010;2022-11-20T09:32:47;-2.00;99.90
59282;DHT22;45054;52.062;10.010;2022-11-20T09:35:13;-2.00;99.90
59282;DHT22;45054;52.062;10.010;2022-11-20T09:37:39;-2.10;99.90
59282;DHT22;45054;52.062;10.010;2022-11-20T09:40:05;-2.10;99.90
59282;DHT22;45054;52.062;10.010;2022-11-20T09:42:39;-2.10;99.90
59282;DHT22;45054;52.062;10.010;2022-11-20T09:45:16;-2.00;99.90
59282;DHT22;45054;52.062;10.010;2022-11-20T09:47:56;-2.00;99.90
59282;DHT22;45054;52.062;10.010;2022-11-20T09:50:29;-2.00;99.90
59282;DHT22;45054;52.062;10.010;2022-11-20T09:53:11;-2.00;99.90
59282;DHT22;45054;52.062;10.010;2022-11-20T09:55:38;-2.00;99.90
59282;DHT22;45054;52.062;10.010;2022-11-20T09:58:06;-2.00;99.90
59282;DHT22;45054;52.062;10.010;2022-11-20T10:00:32;-1.90;99.90
59282;DHT22;45054;52.062;10.010;2022-11-20T10:03:03;-1.90;99.90
59282;DHT22;45054;52.062;10.010;2022-11-20T10:05:35;-1.90;99.90
59282;DHT22;45054;52.062;10.010;2022-11-20T10:08:14;-1.90;99.90
59282;DHT22;45054;52.062;10.010;2022-11-20T10:10:44;-1.90;99.90
59282;DHT22;45054;52.062;10.010;2022-11-20T10:13:17;-1.80;99.90
59282;DHT22;45054;52.062;10.010;2022-11-20T10:15:56;-1.90;99.90
59282;DHT22;45054;52.062;10.010;2022-11-20T10:18:36;-1.90;99.90
59282;DHT22;45054;52.062;10.010;2022-11-20T10:21:12;-1.80;99.90
59282;DHT22;45054;52.062;10.010;2022-11-20T10:23:50;-1.80;99.90
59282;DHT22;45054;52.062;10.010;2022-11-20T10:26:22;-1.80;99.90
59282;DHT22;45054;52.062;10.010;2022-11-20T10:29:00;-1.90;99.90
59282;DHT22;45054;52.062;10.010;2022-11-20T10:31:30;-2.00;99.90
59282;DHT22;45054;52.062;10.010;2022-11-20T10:34:01;-2.00;99.90
59282;DHT22;45054;52.062;10.010;2022-11-20T10:36:32;-2.00;99.90
59282;DHT22;45054;52.062;10.010;2022-11-20T10:39:04;-1.90;99.90
59282;DHT22;45054;52.062;10.010;2022-11-20T10:41:34;-1.80;99.90
59282;DHT22;45054;52.062;10.010;2022-11-20T10:44:05;-1.70;99.90
59282;DHT22;45054;52.062;10.010;2022-11-20T10:46:38;-1.60;99.90
59282;DHT22;45054;52.062;10.010;2022-11-20T10:49:12;-1.50;99.90
59282;DHT22;45054;52.062;10.010;2022-11-20T10:51:45;-1.50;99.90
59282;DHT22;45054;52.062;10.010;2022-11-20T10:54:20;-1.30;99.90
59282;DHT22;45054;52.062;10.010;2022-11-20T10:56:48;-1.20;99.90
59282;DHT22;45054;52.062;10.010;2022-11-20T10:59:28;-1.10;99.90
59282;DHT22;45054;52.062;10.010;2022-11-20T11:01:58;-1.00;99.90
59282;DHT22;45054;52.062;10.010;2022-11-20T11:04:35;-0.80;99.90
59282;DHT22;45054;52.062;10.010;2022-11-20T11:07:09;-0.60;99.90
59282;DHT22;45054;52.062;10.010;2022-11-20T11:09:40;-0.50;99.90
59282;DHT22;45054;52.062;10.010;2022-11-20T11:12:08;-0.30;99.90
59282;DHT22;45054;52.062;10.010;2022-11-20T11:14:45;-0.30;99.90
59282;DHT22;45054;52.062;10.010;2022-11-20T11:17:29;-0.10;99.90
59282;DHT22;45054;52.062;10.010;2022-11-20T11:20:05;-0.10;99.90
59282;DHT22;45054;52.062;10.010;2022-11-20T11:22:33;-0.10;99.90
59282;DHT22;45054;52.062;10.010;2022-11-20T11:24:59;-0.10;99.90
59282;DHT22;45054;52.062;10.010;2022-11-20T11:27:25;-0.20;99.90
59282;DHT22;45054;52.062;10.010;2022-11-20T11:30:02;0.00;99.90
59282;DHT22;45054;52.062;10.010;2022-11-20T11:32:28;0.00;99.90
59282;DHT22;45054;52.062;10.010;2022-11-20T11:35:02;0.10;99.90
59282;DHT22;45054;52.062;10.010;2022-11-20T11:37:33;0.20;99.90
59282;DHT22;45054;52.062;10.010;2022-11-20T11:39:59;0.30;99.90
59282;DHT22;45054;52.062;10.010;2022-11-20T11:42:25;0.40;99.90
59282;DHT22;45054;52.062;10.010;2022-11-20T11:44:51;0.40;99.90
59282;DHT22;45054;52.062;10.010;2022-11-20T11:47:23;0.50;99.90
59282;DHT22;45054;52.062;10.010;2022-11-20T11:49:49;0.40;99.90
59282;DHT22;45054;52.062;10.010;2022-11-20T11:52:18;0.40;99.90
59282;DHT22;45054;52.062;10.010;2022-11-20T11:54:50;0.40;99.90
59282;DHT22;45054;52.062;10.010;2022-11-20T11:57:23;0.40;99.90
59282;DHT22;45054;52.062;10.010;2022-11-20T11:59:58;0.40;99.90
59282;DHT22;45054;52.062;10.010;2022-11-20T12:02:31;0.40;99.90
59282;DHT22;45054;52.062;10.010;2022-11-20T12:05:03;0.50;99.90
59282;DHT22;45054;52.062;10.010;2022-11-20T12:07:41;0.50;99.90
59282;DHT22;45054;52.062;10.010;2022-11-20T12:10:20;0.60;99.90
59282;DHT22;45054;52.062;10.010;2022-11-20T12:12:54;0.80;99.90
59282;DHT22;45054;52.062;10.010;2022-11-20T12:15:28;0.90;99.90
59282;DHT22;45054;52.062;10.010;2022-11-20T12:17:54;0.90;99.90
59282;DHT22;45054;52.062;10.010;2022-11-20T12:20:22;0.90;99.90
59282;DHT22;45054;52.062;10.010;2022-11-20T12:22:52;0.80;99.90
59282;DHT22;45054;52.062;10.010;2022-11-20T12:25:22;0.70;99.90
59282;DHT22;45054;52.062;10.010;2022-11-20T12:30:48;0.80;99.90
59282;DHT22;45054;52.062;10.010;2022-11-20T12:33:42;1.00;99.90
59282;DHT22;45054;52.062;10.010;2022-11-20T12:36:19;1.20;99.90
59282;DHT22;45054;52.062;10.010;2022-11-20T12:38:58;1.40;99.90
59282;DHT22;45054;52.062;10.010;2022-11-20T12:41:44;1.50;99.90
59282;DHT22;45054;52.062;10.010;2022-11-20T12:44:25;1.70;99.90
59282;DHT22;45054;52.062;10.010;2022-11-20T12:47:01;1.80;99.90
59282;DHT22;45054;52.062;10.010;2022-11-20T12:49:38;2.00;99.90
59282;DHT22;45054;52.062;10.010;2022-11-20T12:52:18;2.10;99.90
59282;DHT22;45054;52.062;10.010;2022-11-20T12:57:50;2.10;99.90
59282;DHT22;45054;52.062;10.010;2022-11-20T13:00:18;2.10;99.90
59282;DHT22;45054;52.062;10.010;2022-11-20T13:03:05;2.10;99.90
59282;DHT22;45054;52.062;10.010;2022-11-20T13:05:37;2.10;99.90
59282;DHT22;45054;52.062;10.010;2022-11-20T13:08:03;2.10;99.90
59282;DHT22;45054;52.062;10.010;2022-11-20T13:10:39;2.10;99.90
59282;DHT22;45054;52.062;10.010;2022-11-20T13:13:14;2.20;99.90
59282;DHT22;45054;52.062;10.010;2022-11-20T13:15:48;2.30;99.90
59282;DHT22;45054;52.062;10.010;2022-11-20T13:18:17;2.50;99.90
59282;DHT22;45054;52.062;10.010;2022-11-20T13:20:44;2.50;99.90
59282;DHT22;45054;52.062;10.010;2022-11-20T13:23:10;2.60;99.90
59282;DHT22;45054;52.062;10.010;2022-11-20T13:25:39;2.60;99.90
59282;DHT22;45054;52.062;10.010;2022-11-20T13:28:23;2.70;99.90
59282;DHT22;45054;52.062;10.010;2022-11-20T13:30:52;2.60;99.90
59282;DHT22;45054;52.062;10.010;2022-11-20T13:33:25;2.50;99.90
59282;DHT22;45054;52.062;10.010;2022-11-20T13:35:56;2.50;99.90
59282;DHT22;45054;52.062;10.010;2022-11-20T13:38:22;2.60;99.90
59282;DHT22;45054;52.062;10.010;2022-11-20T13:40:54;2.60;99.90
59282;DHT22;45054;52.062;10.010;2022-11-20T13:43:23;2.70;99.90
59282;DHT22;45054;52.062;10.010;2022-11-20T13:45:57;2.80;99.90
59282;DHT22;45054;52.062;10.010;2022-11-20T13:48:25;2.90;99.90
59282;DHT22;45054;52.062;10.010;2022-11-20T13:51:00;3.10;99.90
59282;DHT22;45054;52.062;10.010;2022-11-20T13:53:47;3.10;99.90
59282;DHT22;45054;52.062;10.010;2022-11-20T13:56:23;3.10;99.90
59282;DHT22;45054;52.062;10.010;2022-11-20T13:58:55;3.10;99.90
59282;DHT22;45054;52.062;10.010;2022-11-20T14:01:23;2.90;99.90
59282;DHT22;45054;52.062;10.010;2022-11-20T14:03:50;2.90;99.90
59282;DHT22;45054;52.062;10.010;2022-11-20T14:06:25;2.80;99.90
59282;DHT22;45054;52.062;10.010;2022-11-20T14:08:51;2.70;99.90
59282;DHT22;45054;52.062;10.010;2022-11-20T14:11:22;2.70;99.90
59282;DHT22;45054;52.062;10.010;2022-11-20T14:13:57;2.80;99.90
59282;DHT22;45054;52.062;10.010;2022-11-20T14:16:24;2.80;99.90
59282;DHT22;45054;52.062;10.010;2022-11-20T14:18:50;2.80;99.90
59282;DHT22;45054;52.062;10.010;2022-11-20T14:21:22;2.80;99.90
59282;DHT22;45054;52.062;10.010;2022-11-20T14:23:48;2.70;99.90
59282;DHT22;45054;52.062;10.010;2022-11-20T14:26:15;2.60;99.90
59282;DHT22;45054;52.062;10.010;2022-11-20T14:28:48;2.60;99.90
59282;DHT22;45054;52.062;10.010;2022-11-20T14:31:21;2.50;99.90
59282;DHT22;45054;52.062;10.010;2022-11-20T14:33:48;2.50;99.90
59282;DHT22;45054;52.062;10.010;2022-11-20T14:36:17;2.50;99.90
59282;DHT22;45054;52.062;10.010;2022-11-20T14:38:43;2.40;99.90
59282;DHT22;45054;52.062;10.010;2022-11-20T14:41:16;2.30;99.90
59282;DHT22;45054;52.062;10.010;2022-11-20T14:43:47;2.30;99.90
59282;DHT22;45054;52.062;10.010;2022-11-20T14:46:15;2.30;99.90
59282;DHT22;45054;52.062;10.010;2022-11-20T14:48:44;2.20;99.90
59282;DHT22;45054;52.062;10.010;2022-11-20T14:51:11;2.10;99.90
59282;DHT22;45054;52.062;10.010;2022-11-20T14:53:37;1.90;99.90
59282;DHT22;45054;52.062;10.010;2022-11-20T14:56:03;1.80;99.90
59282;DHT22;45054;52.062;10.010;2022-11-20T14:58:30;1.70;99.90
59282;DHT22;45054;52.062;10.010;2022-11-20T15:01:00;1.60;99.90
59282;DHT22;45054;52.062;10.010;2022-11-20T15:03:30;1.50;99.90
59282;DHT22;45054;52.062;10.010;2022-11-20T15:05:56;1.50;99.90
59282;DHT22;45054;52.062;10.010;2022-11-20T15:08:22;1.40;99.90
59282;DHT22;45054;52.062;10.010;2022-11-20T15:10:48;1.30;99.90
59282;DHT22;45054;52.062;10.010;2022-11-20T15:13:18;1.10;99.90
59282;DHT22;45054;52.062;10.010;2022-11-20T15:15:46;1.00;99.90
59282;DHT22;45054;52.062;10.010;2022-11-20T15:18:16;0.80;99.90
59282;DHT22;45054;52.062;10.010;2022-11-20T15:20:43;0.70;99.90
59282;DHT22;45054;52.062;10.010;2022-11-20T15:23:11;0.60;99.90
59282;DHT22;45054;52.062;10.010;2022-11-20T15:25:38;0.50;99.90
59282;DHT22;45054;52.062;10.010;2022-11-20T15:28:11;0.40;99.90
59282;DHT22;45054;52.062;10.010;2022-11-20T15:30:38;0.30;99.90
59282;DHT22;45054;52.062;10.010;2022-11-20T15:33:07;0.20;99.90